Monday, December 17, 2018, 12:47 PM EST
Back to Local

KMHT, Manchester Airport

Location: Manchester, NH, United States Lat: 42.933
Local Time: 12:47 PM EST (17:47 GMT) Lon: -71.433
Time Zone: US/Eastern Elev: 232 ft

Show me the last for .
Show Coded

Time T Td Feel RH Dir Speed Gust Alt SLP Vis Weather Sky Remarks
2018-12-17 11:53 38 33 34 82 310° 5 - 29.55 29.59 10 FEW008 BKN026 BKN035 None
2018-12-17 10:53 36 32 31 85 320° 6 - 29.59 29.63 10 FEW009 BKN025 OVC033 1-hr Precip Total: Trace
2018-12-17 10:34 36 33 30 89 310° 8 - 29.60 - 10 SCT009 SCT013 OVC025 1-hr Precip Total: Trace
2018-12-17 09:53 36 33 31 89 320° 6 - 29.62 29.67 5 -DZ BR BKN007 OVC036 1-hr Precip Total: Trace
6-hr Precip Total (10am): 0.00"
2018-12-17 08:53 34 33 27 96 330° 8 - 29.65 29.70 1 -DZ BR BKN007 OVC012 1-hr Precip Total: Trace
2018-12-17 08:24 34 32 28 92 320° 7 - 29.66 - 1 -RA BR BKN007 BKN013 OVC019 1-hr Precip Total: Trace
2018-12-17 08:19 34 32 29 92 320° 6 - 29.66 - 1 -RA BR SCT007 SCT013 OVC019 1-hr Precip Total: Trace
2018-12-17 07:59 34 32 27 92 340° 8 - 29.66 - 9 -RA FEW007 SCT012 OVC017 1-hr Precip Total: Trace
2018-12-17 07:53 34 32 27 92 340° 8 - 29.66 29.71 9 -RA BKN012 OVC017 1-hr Precip Total: Trace
2018-12-17 07:14 34 32 28 92 320° 7 - 29.67 - 10 -RA BKN011 OVC016 1-hr Precip Total: Trace
2018-12-17 06:53 34 32 28 92 330° 7 - 29.66 29.71 10 -RA BKN009 OVC016 1-hr Precip Total: Trace
6-hr Precip Total (7am): 0.02"
24-hr Precip Total (7am): 0.35"
6-hr Min Temp (7am): 33.1°F
6-hr Max Temp (7am): 36.0°F
2018-12-17 06:51 34 32 28 93 340° 7 - 29.66 - 3 -RA SCT007 BKN011 OVC015 1-hr Precip Total: Trace
2018-12-17 06:00 34 32 27 92 330° 9 - 29.68 - 3 -RA FEW009 OVC017 1-hr Precip Total: Trace
2018-12-17 05:53 33 32 25 95 330° 10 - 29.68 29.73 6 -SNRA BR SCT009 OVC017 1-hr Precip Total: Trace
2018-12-17 05:46 33 32 25 95 330° 9 - 29.68 - 6 -SNRA BR SCT009 OVC017 1-hr Precip Total: Trace
2018-12-17 04:53 33 32 25 95 350° 10 - 29.69 29.74 4 -SNRA BR BKN009 OVC013 1-hr Precip Total: Trace
2018-12-17 04:24 33 32 25 95 340° 9 - 29.70 - 4 -SNRA BKN009 OVC013 1-hr Precip Total: Trace
2018-12-17 03:53 33 31 24 91 350° 13 - 29.71 29.76 4 -RAPL BR BKN007 OVC013 1-hr Precip Total: 0.01"
6-hr Precip Total (4am): 0.02"
2018-12-17 02:53 33 32 25 95 350° 9 - 29.73 29.77 4 -RAPL BR BKN007 OVC011 1-hr Precip Total: 0.01"
2018-12-17 01:53 35 32 27 88 360° 12 - 29.74 29.80 5 -RAPL BR OVC009 1-hr Precip Total: Trace
2018-12-17 01:10 35 33 26 92 10° 13 - 29.76 - 4 -RAPL BR OVC009 1-hr Precip Total: Trace
2018-12-17 00:53 36 33 28 89 20° 10 - 29.76 29.81 8 -RAPL OVC012 1-hr Precip Total: Trace
6-hr Precip Total (1am): 0.33"
6-hr Min Temp (1am): 35.1°F
6-hr Max Temp (1am): 37.9°F
2018-12-16 23:53 36 33 28 89 10° 12 - 29.79 29.84 10 -RAPL OVC012 1-hr Precip Total: 0.01"
24-hr Min Temp (12am): 28.0°F
24-hr Max Temp (12am): 39.0°F
2018-12-16 22:53 35 32 27 88 20° 10 - 29.83 29.88 9 -PLRA OVC012 1-hr Precip Total: 0.01"
2018-12-16 22:18 35 32 27 88 10° 10 - 29.85 - 10 -PLRA OVC014 1-hr Precip Total: 0.01"
2018-12-16 22:09 35 32 27 88 10° 12 - 29.85 - 7 RAPL OVC014 1-hr Precip Total: 0.01"
2018-12-16 21:53 35 32 28 88 10° 9 - 29.86 29.91 6 RAPL BR OVC016 1-hr Precip Total: 0.19"
6-hr Precip Total (10pm): 0.31"
2018-12-16 20:53 36 32 29 85 10° 9 - 29.89 29.94 5 -RAPL BR OVC017 1-hr Precip Total: 0.12"
2018-12-16 19:53 37 31 30 78 20° 10 - 29.91 29.96 10 -RAPL BKN018 OVC080 1-hr Precip Total: Trace
2018-12-16 19:25 38 30 30 72 30° 12 - 29.93 - 10 -RAPL OVC018 1-hr Precip Total: Trace
2018-12-16 18:53 38 30 31 72 20° 10 - 29.93 29.98 10 OVC018 6-hr Precip Total (7pm): 0.00"
6-hr Min Temp (7pm): 37.9°F
6-hr Max Temp (7pm): 39.0°F
2018-12-16 17:53 38 30 31 72 30° 9 - 29.95 30.00 10 BKN018 OVC024 None
2018-12-16 16:53 38 31 30 75 20° 13 - 29.96 30.01 10 BKN015 OVC025 None
2018-12-16 15:53 39 31 33 72 20° 9 - 29.97 30.02 10 OVC017 6-hr Precip Total (4pm): 0.00"
2018-12-16 14:53 39 31 33 72 30° 8 - 29.99 30.04 10 OVC023 None
2018-12-16 13:53 39 31 32 72 30° 10 - 30.01 30.06 10 FEW018 OVC024 1-hr Precip Total: Trace
2018-12-16 12:53 38 30 33 72 20° 6 - 30.04 30.09 10 SCT014 BKN024 OVC029 6-hr Min Temp (1pm): 30.0°F
6-hr Max Temp (1pm): 37.9°F

Support USWX by starting your Amazon purchase here.